PWSweather.com
Personal Weather Stations
Station Observations
ILOMBARD30
LodiIT 26900

LodiIT 26900

Lat: 45.2993, Lon: 9.5207

Elevation: 255

Station Type: Davis Vantege Pro2 Plus 24h

http://www.meteo-iw2gob.it

High Low Average
Temperature 73.1°F22.8°C 41.8°F5.4°C 57.1°F13.9°C
Dew Point 43.1°F6.2°C 34.7°F1.5°C 38.5°F3.6°C
Winds 11.5 mph 18.5 kmh Calm Calm 7.0 mph WSW11.3 kmh WSW
Wind Gusts 18.4 mph29.6 kmh -- 10.0 mph16.1 kmh
Humidity 80% 30% 53%
Pressure 29.85 in1010.8 mb 29.74 in1007.1 mb -
Precipitation 0.00 in0.0 mm - -
Hour Temp Dew Point Humidity Winds Wind Gusts Pressure Precip Precip Rate Daily Precip Total
12:00 AM 48.5°F9.2°C 35.6°F2.0°C 61% 5.8 mph WSW9.3 kmh WSW 9.2 mph14.8 kmh 29.75 in1007.5 mb - 0.00 in0.0 mm 0.00 in0.0 mm
12:05 AM 48.2°F9.0°C 35.3°F1.8°C 61% 5.8 mph WSW9.3 kmh WSW 6.9 mph11.1 kmh 29.75 in1007.5 mb - 0.00 in0.0 mm 0.00 in0.0 mm
12:10 AM 47.9°F8.8°C 35.5°F1.9°C 62% 6.9 mph WSW11.1 kmh WSW 9.2 mph14.8 kmh 29.75 in1007.5 mb - 0.00 in0.0 mm 0.00 in0.0 mm
12:15 AM 47.8°F8.8°C 35.4°F1.9°C 62% 4.6 mph W7.4 kmh W 10.4 mph16.7 kmh 29.75 in1007.5 mb - 0.00 in0.0 mm 0.00 in0.0 mm
12:20 AM 47.6°F8.7°C 35.6°F2.0°C 63% 6.9 mph WSW11.1 kmh WSW 9.2 mph14.8 kmh 29.74 in1007.1 mb - 0.00 in0.0 mm 0.00 in0.0 mm
12:25 AM 47.4°F8.6°C 35.4°F1.9°C 63% 6.9 mph WSW11.1 kmh WSW 8.1 mph13.0 kmh 29.74 in1007.1 mb - 0.00 in0.0 mm 0.00 in0.0 mm
12:30 AM 47.3°F8.5°C 35.3°F1.8°C 63% 5.8 mph WSW9.3 kmh WSW 6.9 mph11.1 kmh 29.74 in1007.1 mb - 0.00 in0.0 mm 0.00 in0.0 mm
12:35 AM 47.2°F8.4°C 35.6°F2.0°C 64% 6.9 mph WSW11.1 kmh WSW 11.5 mph18.5 kmh 29.74 in1007.1 mb - 0.00 in0.0 mm 0.00 in0.0 mm
12:40 AM 47.0°F8.3°C 35.4°F1.9°C 64% 6.9 mph WSW11.1 kmh WSW 9.2 mph14.8 kmh 29.74 in1007.1 mb - 0.00 in0.0 mm 0.00 in0.0 mm
12:45 AM 47.0°F8.3°C 35.4°F1.9°C 64% 6.9 mph WSW11.1 kmh WSW 9.2 mph14.8 kmh 29.74 in1007.1 mb - 0.00 in0.0 mm 0.00 in0.0 mm
12:50 AM 47.0°F8.3°C 35.4°F1.9°C 64% 6.9 mph WSW11.1 kmh WSW 9.2 mph14.8 kmh 29.75 in1007.5 mb - 0.00 in0.0 mm 0.00 in0.0 mm
12:55 AM 47.1°F8.4°C 35.2°F1.8°C 63% 6.9 mph WSW11.1 kmh WSW 11.5 mph18.5 kmh 29.75 in1007.5 mb - 0.00 in0.0 mm 0.00 in0.0 mm
01:00 AM 47.3°F8.5°C 34.9°F1.6°C 62% 5.8 mph WSW9.3 kmh WSW 8.1 mph13.0 kmh 29.75 in1007.5 mb - 0.00 in0.0 mm 0.00 in0.0 mm
01:05 AM 47.3°F8.5°C 34.9°F1.6°C 62% 8.1 mph WSW13.0 kmh WSW 11.5 mph18.5 kmh 29.76 in1007.8 mb - 0.00 in0.0 mm 0.00 in0.0 mm
01:10 AM 47.2°F8.4°C 35.2°F1.8°C 63% 5.8 mph WSW9.3 kmh WSW 9.2 mph14.8 kmh 29.76 in1007.8 mb - 0.00 in0.0 mm 0.00 in0.0 mm
01:15 AM 47.0°F8.3°C 35.1°F1.7°C 63% 5.8 mph WSW9.3 kmh WSW 9.2 mph14.8 kmh 29.76 in1007.8 mb - 0.00 in0.0 mm 0.00 in0.0 mm
01:20 AM 46.9°F8.3°C 35.4°F1.9°C 64% 8.1 mph WSW13.0 kmh WSW 12.7 mph20.4 kmh 29.76 in1007.8 mb - 0.00 in0.0 mm 0.00 in0.0 mm
01:25 AM 46.9°F8.3°C 35.4°F1.9°C 64% 5.8 mph WSW9.3 kmh WSW 6.9 mph11.1 kmh 29.76 in1007.8 mb - 0.00 in0.0 mm 0.00 in0.0 mm
01:30 AM 46.8°F8.2°C 35.3°F1.8°C 64% 5.8 mph WSW9.3 kmh WSW 10.4 mph16.7 kmh 29.76 in1007.8 mb - 0.00 in0.0 mm 0.00 in0.0 mm
01:35 AM 46.8°F8.2°C 35.6°F2.0°C 65% 8.1 mph WSW13.0 kmh WSW 9.2 mph14.8 kmh 29.76 in1007.8 mb - 0.00 in0.0 mm 0.00 in0.0 mm
01:40 AM 46.8°F8.2°C 35.6°F2.0°C 65% 6.9 mph WSW11.1 kmh WSW 8.1 mph13.0 kmh 29.76 in1007.8 mb - 0.00 in0.0 mm 0.00 in0.0 mm
01:45 AM 46.8°F8.2°C 35.6°F2.0°C 65% 6.9 mph WSW11.1 kmh WSW 11.5 mph18.5 kmh 29.76 in1007.8 mb - 0.00 in0.0 mm 0.00 in0.0 mm
01:50 AM 46.7°F8.2°C 35.6°F2.0°C 65% 6.9 mph WSW11.1 kmh WSW 9.2 mph14.8 kmh 29.76 in1007.8 mb - 0.00 in0.0 mm 0.00 in0.0 mm
01:55 AM 46.7°F8.2°C 35.6°F2.0°C 65% 6.9 mph WSW11.1 kmh WSW 9.2 mph14.8 kmh 29.76 in1007.8 mb - 0.00 in0.0 mm 0.00 in0.0 mm
02:00 AM 46.9°F8.3°C 35.7°F2.1°C 65% 8.1 mph W13.0 kmh W 10.4 mph16.7 kmh 29.76 in1007.8 mb - 0.00 in0.0 mm 0.00 in0.0 mm
02:05 AM 46.9°F8.3°C 35.7°F2.1°C 65% 5.8 mph WSW9.3 kmh WSW 10.4 mph16.7 kmh 29.76 in1007.8 mb - 0.00 in0.0 mm 0.00 in0.0 mm
02:10 AM 46.8°F8.2°C 35.6°F2.0°C 65% 4.6 mph W7.4 kmh W 8.1 mph13.0 kmh 29.76 in1007.8 mb - 0.00 in0.0 mm 0.00 in0.0 mm
02:15 AM 46.6°F8.1°C 35.8°F2.1°C 66% 5.8 mph WSW9.3 kmh WSW 9.2 mph14.8 kmh 29.76 in1007.8 mb - 0.00 in0.0 mm 0.00 in0.0 mm
02:20 AM 46.3°F7.9°C 35.6°F2.0°C 66% 4.6 mph SW7.4 kmh SW 4.6 mph7.4 kmh 29.76 in1007.8 mb - 0.00 in0.0 mm 0.00 in0.0 mm
02:25 AM 46.2°F7.9°C 35.5°F1.9°C 66% 2.3 mph W3.7 kmh W 3.5 mph5.6 kmh 29.76 in1007.8 mb - 0.00 in0.0 mm 0.00 in0.0 mm
02:30 AM 46.1°F7.8°C 35.4°F1.9°C 66% Calm Calm -- 29.76 in1007.8 mb - 0.00 in0.0 mm 0.00 in0.0 mm
02:35 AM 46.0°F7.8°C 35.3°F1.8°C 66% 2.3 mph SW3.7 kmh SW 3.5 mph5.6 kmh 29.76 in1007.8 mb - 0.00 in0.0 mm 0.00 in0.0 mm
02:40 AM 45.8°F7.7°C 35.5°F1.9°C 67% 1.2 mph SW1.9 kmh SW 2.3 mph3.7 kmh 29.76 in1007.8 mb - 0.00 in0.0 mm 0.00 in0.0 mm
02:45 AM 45.6°F7.6°C 35.3°F1.8°C 67% 4.6 mph SW7.4 kmh SW 5.8 mph9.3 kmh 29.76 in1007.8 mb - 0.00 in0.0 mm 0.00 in0.0 mm
02:50 AM 45.3°F7.4°C 35.3°F1.8°C 68% 2.3 mph WSW3.7 kmh WSW 3.5 mph5.6 kmh 29.76 in1007.8 mb - 0.00 in0.0 mm 0.00 in0.0 mm
02:55 AM 45.2°F7.3°C 35.2°F1.8°C 68% 1.2 mph WSW1.9 kmh WSW 2.3 mph3.7 kmh 29.76 in1007.8 mb - 0.00 in0.0 mm 0.00 in0.0 mm
03:00 AM 45.0°F7.2°C 35.1°F1.7°C 68% 1.2 mph WSW1.9 kmh WSW 2.3 mph3.7 kmh 29.76 in1007.8 mb - 0.00 in0.0 mm 0.00 in0.0 mm
03:05 AM 44.8°F7.1°C 35.2°F1.8°C 69% 3.5 mph WSW5.6 kmh WSW 4.6 mph7.4 kmh 29.76 in1007.8 mb - 0.00 in0.0 mm 0.00 in0.0 mm
03:10 AM 44.5°F6.9°C 35.3°F1.8°C 70% 3.5 mph SW5.6 kmh SW 5.8 mph9.3 kmh 29.76 in1007.8 mb - 0.00 in0.0 mm 0.00 in0.0 mm
03:15 AM 44.2°F6.8°C 35.0°F1.7°C 70% 5.8 mph WSW9.3 kmh WSW 6.9 mph11.1 kmh 29.76 in1007.8 mb - 0.00 in0.0 mm 0.00 in0.0 mm
03:20 AM 43.9°F6.6°C 35.1°F1.7°C 71% 4.6 mph WSW7.4 kmh WSW 5.8 mph9.3 kmh 29.76 in1007.8 mb - 0.00 in0.0 mm 0.00 in0.0 mm
03:25 AM 43.7°F6.5°C 34.9°F1.6°C 71% 3.5 mph WSW5.6 kmh WSW 4.6 mph7.4 kmh 29.76 in1007.8 mb - 0.00 in0.0 mm 0.00 in0.0 mm
03:30 AM 43.6°F6.4°C 34.8°F1.6°C 71% 3.5 mph WSW5.6 kmh WSW 4.6 mph7.4 kmh 29.76 in1007.8 mb - 0.00 in0.0 mm 0.00 in0.0 mm
03:35 AM 43.4°F6.3°C 35.0°F1.7°C 72% 4.6 mph WSW7.4 kmh WSW 6.9 mph11.1 kmh 29.76 in1007.8 mb - 0.00 in0.0 mm 0.00 in0.0 mm
03:40 AM 43.3°F6.3°C 34.9°F1.6°C 72% 4.6 mph WSW7.4 kmh WSW 6.9 mph11.1 kmh 29.76 in1007.8 mb - 0.00 in0.0 mm 0.00 in0.0 mm
03:45 AM 43.2°F6.2°C 34.8°F1.6°C 72% 3.5 mph W5.6 kmh W 4.6 mph7.4 kmh 29.76 in1007.8 mb - 0.00 in0.0 mm 0.00 in0.0 mm
03:50 AM 43.3°F6.3°C 34.9°F1.6°C 72% 3.5 mph WSW5.6 kmh WSW 3.5 mph5.6 kmh 29.76 in1007.8 mb - 0.00 in0.0 mm 0.00 in0.0 mm
03:55 AM 43.4°F6.3°C 35.0°F1.7°C 72% 2.3 mph WSW3.7 kmh WSW 4.6 mph7.4 kmh 29.76 in1007.8 mb - 0.00 in0.0 mm 0.00 in0.0 mm
04:00 AM 43.4°F6.3°C 35.0°F1.7°C 72% 5.8 mph WSW9.3 kmh WSW 5.8 mph9.3 kmh 29.76 in1007.8 mb - 0.00 in0.0 mm 0.00 in0.0 mm
04:05 AM 43.2°F6.2°C 35.1°F1.7°C 73% 5.8 mph SW9.3 kmh SW 8.1 mph13.0 kmh 29.77 in1008.1 mb - 0.00 in0.0 mm 0.00 in0.0 mm
04:10 AM 43.0°F6.1°C 34.9°F1.6°C 73% 5.8 mph SW9.3 kmh SW 8.1 mph13.0 kmh 29.76 in1007.8 mb - 0.00 in0.0 mm 0.00 in0.0 mm
04:15 AM 42.8°F6.0°C 34.7°F1.5°C 73% 6.9 mph SW11.1 kmh SW 6.9 mph11.1 kmh 29.76 in1007.8 mb - 0.00 in0.0 mm 0.00 in0.0 mm
04:20 AM 42.8°F6.0°C 35.1°F1.7°C 74% 5.8 mph SW9.3 kmh SW 6.9 mph11.1 kmh 29.76 in1007.8 mb - 0.00 in0.0 mm 0.00 in0.0 mm
04:25 AM 42.8°F6.0°C 35.1°F1.7°C 74% 5.8 mph SW9.3 kmh SW 9.2 mph14.8 kmh 29.76 in1007.8 mb - 0.00 in0.0 mm 0.00 in0.0 mm
04:30 AM 42.7°F5.9°C 35.0°F1.7°C 74% 5.8 mph SW9.3 kmh SW 8.1 mph13.0 kmh 29.76 in1007.8 mb - 0.00 in0.0 mm 0.00 in0.0 mm
04:35 AM 42.7°F5.9°C 35.0°F1.7°C 74% 4.6 mph SW7.4 kmh SW 6.9 mph11.1 kmh 29.76 in1007.8 mb - 0.00 in0.0 mm 0.00 in0.0 mm
04:40 AM 42.6°F5.9°C 34.9°F1.6°C 74% 5.8 mph SW9.3 kmh SW 8.1 mph13.0 kmh 29.76 in1007.8 mb - 0.00 in0.0 mm 0.00 in0.0 mm
04:45 AM 42.4°F5.8°C 35.1°F1.7°C 75% 4.6 mph SW7.4 kmh SW 6.9 mph11.1 kmh 29.76 in1007.8 mb - 0.00 in0.0 mm 0.00 in0.0 mm
04:50 AM 42.4°F5.8°C 35.0°F1.7°C 75% 5.8 mph SW9.3 kmh SW 8.1 mph13.0 kmh 29.76 in1007.8 mb - 0.00 in0.0 mm 0.00 in0.0 mm
04:55 AM 42.5°F5.8°C 35.1°F1.7°C 75% 4.6 mph WSW7.4 kmh WSW 4.6 mph7.4 kmh 29.76 in1007.8 mb - 0.00 in0.0 mm 0.00 in0.0 mm
05:00 AM 42.6°F5.9°C 35.5°F1.9°C 76% 6.9 mph WSW11.1 kmh WSW 9.2 mph14.8 kmh 29.76 in1007.8 mb - 0.00 in0.0 mm 0.00 in0.0 mm
05:05 AM 42.7°F5.9°C 35.7°F2.1°C 76% 8.1 mph WSW13.0 kmh WSW 9.2 mph14.8 kmh 29.77 in1008.1 mb - 0.00 in0.0 mm 0.00 in0.0 mm
05:10 AM 42.6°F5.9°C 35.6°F2.0°C 76% 6.9 mph WSW11.1 kmh WSW 9.2 mph14.8 kmh 29.76 in1007.8 mb - 0.00 in0.0 mm 0.00 in0.0 mm
05:15 AM 42.6°F5.9°C 35.5°F1.9°C 76% 6.9 mph WSW11.1 kmh WSW 10.4 mph16.7 kmh 29.77 in1008.1 mb - 0.00 in0.0 mm 0.00 in0.0 mm
05:20 AM 42.5°F5.8°C 35.5°F1.9°C 76% 8.1 mph WSW13.0 kmh WSW 12.7 mph20.4 kmh 29.77 in1008.1 mb - 0.00 in0.0 mm 0.00 in0.0 mm
05:25 AM 42.5°F5.8°C 35.5°F1.9°C 76% 10.4 mph WSW16.7 kmh WSW 12.7 mph20.4 kmh 29.78 in1008.5 mb - 0.00 in0.0 mm 0.00 in0.0 mm
05:30 AM 42.4°F5.8°C 35.7°F2.1°C 77% 8.1 mph WSW13.0 kmh WSW 10.4 mph16.7 kmh 29.78 in1008.5 mb - 0.00 in0.0 mm 0.00 in0.0 mm
05:35 AM 42.2°F5.7°C 35.5°F1.9°C 77% 5.8 mph SW9.3 kmh SW 9.2 mph14.8 kmh 29.78 in1008.5 mb - 0.00 in0.0 mm 0.00 in0.0 mm
05:40 AM 42.1°F5.6°C 35.4°F1.9°C 77% 6.9 mph SW11.1 kmh SW 9.2 mph14.8 kmh 29.78 in1008.5 mb - 0.00 in0.0 mm 0.00 in0.0 mm
05:45 AM 41.9°F5.5°C 35.6°F2.0°C 78% 6.9 mph SW11.1 kmh SW 9.2 mph14.8 kmh 29.78 in1008.5 mb - 0.00 in0.0 mm 0.00 in0.0 mm
05:50 AM 41.8°F5.4°C 35.4°F1.9°C 78% 6.9 mph SW11.1 kmh SW 11.5 mph18.5 kmh 29.78 in1008.5 mb - 0.00 in0.0 mm 0.00 in0.0 mm
05:55 AM 41.8°F5.4°C 35.4°F1.9°C 78% 6.9 mph SW11.1 kmh SW 8.1 mph13.0 kmh 29.78 in1008.5 mb - 0.00 in0.0 mm 0.00 in0.0 mm
06:00 AM 41.8°F5.4°C 35.8°F2.1°C 79% 6.9 mph WSW11.1 kmh WSW 8.1 mph13.0 kmh 29.78 in1008.5 mb - 0.00 in0.0 mm 0.00 in0.0 mm
06:05 AM 41.9°F5.5°C 35.9°F2.2°C 79% 5.8 mph WSW9.3 kmh WSW 11.5 mph18.5 kmh 29.78 in1008.5 mb - 0.00 in0.0 mm 0.00 in0.0 mm
06:10 AM 41.9°F5.5°C 35.9°F2.2°C 79% 9.2 mph SW14.8 kmh SW 11.5 mph18.5 kmh 29.78 in1008.5 mb - 0.00 in0.0 mm 0.00 in0.0 mm
06:15 AM 41.9°F5.5°C 35.9°F2.2°C 79% 5.8 mph WSW9.3 kmh WSW 10.4 mph16.7 kmh 29.78 in1008.5 mb - 0.00 in0.0 mm 0.00 in0.0 mm
06:20 AM 41.9°F5.5°C 35.9°F2.2°C 79% 5.8 mph WSW9.3 kmh WSW 8.1 mph13.0 kmh 29.79 in1008.8 mb - 0.00 in0.0 mm 0.00 in0.0 mm
06:25 AM 41.8°F5.4°C 35.8°F2.1°C 79% 5.8 mph SW9.3 kmh SW 9.2 mph14.8 kmh 29.78 in1008.5 mb - 0.00 in0.0 mm 0.00 in0.0 mm
06:30 AM 41.9°F5.5°C 35.9°F2.2°C 79% 8.1 mph WSW13.0 kmh WSW 11.5 mph18.5 kmh 29.78 in1008.5 mb - 0.00 in0.0 mm 0.00 in0.0 mm
06:35 AM 42.0°F5.6°C 36.0°F2.2°C 79% 8.1 mph SW13.0 kmh SW 11.5 mph18.5 kmh 29.78 in1008.5 mb - 0.00 in0.0 mm 0.00 in0.0 mm
06:40 AM 42.1°F5.6°C 36.1°F2.3°C 79% 6.9 mph SW11.1 kmh SW 10.4 mph16.7 kmh 29.78 in1008.5 mb - 0.00 in0.0 mm 0.00 in0.0 mm
06:45 AM 42.2°F5.7°C 36.5°F2.5°C 80% 8.1 mph SW13.0 kmh SW 11.5 mph18.5 kmh 29.78 in1008.5 mb - 0.00 in0.0 mm 0.00 in0.0 mm
06:50 AM 42.4°F5.8°C 36.6°F2.6°C 80% 9.2 mph SW14.8 kmh SW 12.7 mph20.4 kmh 29.78 in1008.5 mb - 0.00 in0.0 mm 0.00 in0.0 mm
06:55 AM 42.5°F5.8°C 36.5°F2.5°C 79% 9.2 mph WSW14.8 kmh WSW 11.5 mph18.5 kmh 29.79 in1008.8 mb - 0.00 in0.0 mm 0.00 in0.0 mm
07:00 AM 42.9°F6.1°C 36.9°F2.7°C 79% 10.4 mph WSW16.7 kmh WSW 12.7 mph20.4 kmh 29.79 in1008.8 mb - 0.00 in0.0 mm 0.00 in0.0 mm
07:05 AM 43.5°F6.4°C 37.4°F3.0°C 79% 8.1 mph WSW13.0 kmh WSW 11.5 mph18.5 kmh 29.78 in1008.5 mb - 0.00 in0.0 mm 0.00 in0.0 mm
07:10 AM 44.0°F6.7°C 37.6°F3.1°C 78% 8.1 mph WSW13.0 kmh WSW 10.4 mph16.7 kmh 29.78 in1008.5 mb - 0.00 in0.0 mm 0.00 in0.0 mm
07:15 AM 44.3°F6.8°C 37.5°F3.1°C 77% 9.2 mph WSW14.8 kmh WSW 11.5 mph18.5 kmh 29.78 in1008.5 mb - 0.00 in0.0 mm 0.00 in0.0 mm
07:20 AM 44.6°F7.0°C 37.5°F3.1°C 76% 9.2 mph WSW14.8 kmh WSW 11.5 mph18.5 kmh 29.77 in1008.1 mb - 0.00 in0.0 mm 0.00 in0.0 mm
07:25 AM 44.7°F7.1°C 37.6°F3.1°C 76% 9.2 mph SW14.8 kmh SW 11.5 mph18.5 kmh 29.78 in1008.5 mb - 0.00 in0.0 mm 0.00 in0.0 mm
07:30 AM 44.7°F7.1°C 37.6°F3.1°C 76% 9.2 mph WSW14.8 kmh WSW 11.5 mph18.5 kmh 29.78 in1008.5 mb - 0.00 in0.0 mm 0.00 in0.0 mm
07:35 AM 44.6°F7.0°C 37.5°F3.1°C 76% 9.2 mph SW14.8 kmh SW 16.1 mph25.9 kmh 29.78 in1008.5 mb - 0.00 in0.0 mm 0.00 in0.0 mm
07:40 AM 44.4°F6.9°C 37.3°F2.9°C 76% 9.2 mph SW14.8 kmh SW 11.5 mph18.5 kmh 29.78 in1008.5 mb - 0.00 in0.0 mm 0.00 in0.0 mm
07:45 AM 44.6°F7.0°C 37.5°F3.1°C 76% 6.9 mph WSW11.1 kmh WSW 11.5 mph18.5 kmh 29.78 in1008.5 mb - 0.00 in0.0 mm 0.00 in0.0 mm
07:50 AM 45.0°F7.2°C 37.9°F3.3°C 76% 10.4 mph WSW16.7 kmh WSW 13.8 mph22.2 kmh 29.78 in1008.5 mb - 0.00 in0.0 mm 0.00 in0.0 mm
07:55 AM 45.4°F7.4°C 38.3°F3.5°C 76% 9.2 mph SW14.8 kmh SW 12.7 mph20.4 kmh 29.78 in1008.5 mb - 0.00 in0.0 mm 0.00 in0.0 mm
08:00 AM 45.7°F7.6°C 38.2°F3.4°C 75% 6.9 mph WSW11.1 kmh WSW 10.4 mph16.7 kmh 29.79 in1008.8 mb - 0.00 in0.0 mm 0.00 in0.0 mm
08:05 AM 46.0°F7.8°C 38.2°F3.4°C 74% 8.1 mph WSW13.0 kmh WSW 11.5 mph18.5 kmh 29.79 in1008.8 mb - 0.00 in0.0 mm 0.00 in0.0 mm
08:10 AM 46.3°F7.9°C 38.5°F3.6°C 74% 8.1 mph WSW13.0 kmh WSW 11.5 mph18.5 kmh 29.79 in1008.8 mb - 0.00 in0.0 mm 0.00 in0.0 mm
08:15 AM 46.7°F8.2°C 38.9°F3.8°C 74% 8.1 mph WSW13.0 kmh WSW 11.5 mph18.5 kmh 29.79 in1008.8 mb - 0.00 in0.0 mm 0.00 in0.0 mm
08:20 AM 47.2°F8.4°C 39.0°F3.9°C 73% 9.2 mph WSW14.8 kmh WSW 13.8 mph22.2 kmh 29.79 in1008.8 mb - 0.00 in0.0 mm 0.00 in0.0 mm
08:25 AM 47.7°F8.7°C 39.2°F4.0°C 72% 6.9 mph WSW11.1 kmh WSW 9.2 mph14.8 kmh 29.79 in1008.8 mb - 0.00 in0.0 mm 0.00 in0.0 mm
08:30 AM 48.2°F9.0°C 39.3°F4.1°C 71% 9.2 mph WSW14.8 kmh WSW 11.5 mph18.5 kmh 29.79 in1008.8 mb - 0.00 in0.0 mm 0.00 in0.0 mm
08:35 AM 48.8°F9.3°C 39.4°F4.1°C 70% 4.6 mph W7.4 kmh W 9.2 mph14.8 kmh 29.80 in1009.1 mb - 0.00 in0.0 mm 0.00 in0.0 mm
08:40 AM 49.4°F9.7°C 40.0°F4.4°C 70% 5.8 mph WSW9.3 kmh WSW 9.2 mph14.8 kmh 29.80 in1009.1 mb - 0.00 in0.0 mm 0.00 in0.0 mm
08:45 AM 50.0°F10.0°C 40.2°F4.6°C 69% 6.9 mph WSW11.1 kmh WSW 6.9 mph11.1 kmh 29.80 in1009.1 mb - 0.00 in0.0 mm 0.00 in0.0 mm
08:50 AM 50.6°F10.3°C 40.5°F4.7°C 68% 8.1 mph WSW13.0 kmh WSW 11.5 mph18.5 kmh 29.80 in1009.1 mb - 0.00 in0.0 mm 0.00 in0.0 mm
08:55 AM 51.1°F10.6°C 40.6°F4.8°C 67% 6.9 mph WSW11.1 kmh WSW 9.2 mph14.8 kmh 29.80 in1009.1 mb - 0.00 in0.0 mm 0.00 in0.0 mm
09:00 AM 51.6°F10.9°C 40.6°F4.8°C 66% 5.8 mph SW9.3 kmh SW 10.4 mph16.7 kmh 29.80 in1009.1 mb - 0.00 in0.0 mm 0.00 in0.0 mm
09:05 AM 52.0°F11.1°C 40.6°F4.8°C 65% 9.2 mph WSW14.8 kmh WSW 12.7 mph20.4 kmh 29.80 in1009.1 mb - 0.00 in0.0 mm 0.00 in0.0 mm
09:10 AM 52.3°F11.3°C 40.9°F4.9°C 65% 6.9 mph WSW11.1 kmh WSW 9.2 mph14.8 kmh 29.80 in1009.1 mb - 0.00 in0.0 mm 0.00 in0.0 mm
09:15 AM 52.7°F11.5°C 40.9°F4.9°C 64% 6.9 mph WSW11.1 kmh WSW 10.4 mph16.7 kmh 29.80 in1009.1 mb - 0.00 in0.0 mm 0.00 in0.0 mm
09:20 AM 53.3°F11.8°C 41.0°F5.0°C 63% 4.6 mph WSW7.4 kmh WSW 5.8 mph9.3 kmh 29.80 in1009.1 mb - 0.00 in0.0 mm 0.00 in0.0 mm
09:25 AM 53.9°F12.2°C 41.2°F5.1°C 62% 8.1 mph WSW13.0 kmh WSW 10.4 mph16.7 kmh 29.80 in1009.1 mb - 0.00 in0.0 mm 0.00 in0.0 mm
09:30 AM 54.4°F12.4°C 40.8°F4.9°C 60% 8.1 mph WSW13.0 kmh WSW 11.5 mph18.5 kmh 29.80 in1009.1 mb - 0.00 in0.0 mm 0.00 in0.0 mm
09:35 AM 54.9°F12.7°C 41.2°F5.1°C 60% 8.1 mph WSW13.0 kmh WSW 11.5 mph18.5 kmh 29.81 in1009.5 mb - 0.00 in0.0 mm 0.00 in0.0 mm
09:40 AM 55.3°F12.9°C 41.6°F5.3°C 60% 6.9 mph W11.1 kmh W 9.2 mph14.8 kmh 29.81 in1009.5 mb - 0.00 in0.0 mm 0.00 in0.0 mm
09:45 AM 55.7°F13.2°C 41.6°F5.3°C 59% 6.9 mph WSW11.1 kmh WSW 11.5 mph18.5 kmh 29.81 in1009.5 mb - 0.00 in0.0 mm 0.00 in0.0 mm
09:50 AM 56.1°F13.4°C 41.6°F5.3°C 58% 5.8 mph WSW9.3 kmh WSW 9.2 mph14.8 kmh 29.82 in1009.8 mb - 0.00 in0.0 mm 0.00 in0.0 mm
09:55 AM 56.5°F13.6°C 41.4°F5.2°C 57% 5.8 mph W9.3 kmh W 10.4 mph16.7 kmh 29.82 in1009.8 mb - 0.00 in0.0 mm 0.00 in0.0 mm
10:00 AM 56.9°F13.8°C 41.8°F5.4°C 57% 8.1 mph WSW13.0 kmh WSW 11.5 mph18.5 kmh 29.82 in1009.8 mb - 0.00 in0.0 mm 0.00 in0.0 mm
10:05 AM 57.3°F14.1°C 41.7°F5.4°C 56% 6.9 mph SW11.1 kmh SW 10.4 mph16.7 kmh 29.82 in1009.8 mb - 0.00 in0.0 mm 0.00 in0.0 mm
10:10 AM 57.8°F14.3°C 41.7°F5.4°C 55% 6.9 mph W11.1 kmh W 11.5 mph18.5 kmh 29.82 in1009.8 mb - 0.00 in0.0 mm 0.00 in0.0 mm
10:15 AM 58.0°F14.4°C 41.4°F5.2°C 54% 6.9 mph WSW11.1 kmh WSW 11.5 mph18.5 kmh 29.82 in1009.8 mb - 0.00 in0.0 mm 0.00 in0.0 mm
10:20 AM 58.3°F14.6°C 41.2°F5.1°C 53% 8.1 mph WSW13.0 kmh WSW 9.2 mph14.8 kmh 29.82 in1009.8 mb - 0.00 in0.0 mm 0.00 in0.0 mm
10:25 AM 58.7°F14.8°C 41.6°F5.3°C 53% 5.8 mph WSW9.3 kmh WSW 5.8 mph9.3 kmh 29.82 in1009.8 mb - 0.00 in0.0 mm 0.00 in0.0 mm
10:30 AM 59.1°F15.1°C 42.0°F5.6°C 53% 4.6 mph WSW7.4 kmh WSW 10.4 mph16.7 kmh 29.82 in1009.8 mb - 0.00 in0.0 mm 0.00 in0.0 mm
10:35 AM 59.7°F15.4°C 42.0°F5.6°C 52% 5.8 mph W9.3 kmh W 6.9 mph11.1 kmh 29.82 in1009.8 mb - 0.00 in0.0 mm 0.00 in0.0 mm
10:40 AM 60.3°F15.7°C 41.6°F5.3°C 50% 6.9 mph WSW11.1 kmh WSW 9.2 mph14.8 kmh 29.82 in1009.8 mb - 0.00 in0.0 mm 0.00 in0.0 mm
10:45 AM 60.8°F16.0°C 41.5°F5.3°C 49% 5.8 mph SW9.3 kmh SW 9.2 mph14.8 kmh 29.82 in1009.8 mb - 0.00 in0.0 mm 0.00 in0.0 mm
10:50 AM 61.3°F16.3°C 41.4°F5.2°C 48% 4.6 mph WSW7.4 kmh WSW 8.1 mph13.0 kmh 29.82 in1009.8 mb - 0.00 in0.0 mm 0.00 in0.0 mm
10:55 AM 61.5°F16.4°C 41.1°F5.1°C 47% 8.1 mph WSW13.0 kmh WSW 8.1 mph13.0 kmh 29.82 in1009.8 mb - 0.00 in0.0 mm 0.00 in0.0 mm
11:00 AM 62.0°F16.7°C 41.6°F5.3°C 47% 5.8 mph WSW9.3 kmh WSW 11.5 mph18.5 kmh 29.81 in1009.5 mb - 0.00 in0.0 mm 0.00 in0.0 mm
11:05 AM 62.3°F16.8°C 41.8°F5.4°C 47% 4.6 mph WSW7.4 kmh WSW 5.8 mph9.3 kmh 29.81 in1009.5 mb - 0.00 in0.0 mm 0.00 in0.0 mm
11:10 AM 62.7°F17.1°C 41.6°F5.3°C 46% 5.8 mph WSW9.3 kmh WSW 10.4 mph16.7 kmh 29.81 in1009.5 mb - 0.00 in0.0 mm 0.00 in0.0 mm
11:15 AM 62.9°F17.2°C 41.3°F5.2°C 45% 4.6 mph W7.4 kmh W 8.1 mph13.0 kmh 29.81 in1009.5 mb - 0.00 in0.0 mm 0.00 in0.0 mm
11:20 AM 63.1°F17.3°C 40.8°F4.9°C 44% 6.9 mph WSW11.1 kmh WSW 12.7 mph20.4 kmh 29.81 in1009.5 mb - 0.00 in0.0 mm 0.00 in0.0 mm
11:25 AM 63.2°F17.3°C 40.9°F4.9°C 44% 6.9 mph W11.1 kmh W 9.2 mph14.8 kmh 29.81 in1009.5 mb - 0.00 in0.0 mm 0.00 in0.0 mm
11:30 AM 63.6°F17.6°C 41.3°F5.2°C 44% 6.9 mph WNW11.1 kmh WNW 9.2 mph14.8 kmh 29.81 in1009.5 mb - 0.00 in0.0 mm 0.00 in0.0 mm
11:35 AM 64.0°F17.8°C 41.0°F5.0°C 43% 6.9 mph WSW11.1 kmh WSW 10.4 mph16.7 kmh 29.81 in1009.5 mb - 0.00 in0.0 mm 0.00 in0.0 mm
11:40 AM 64.1°F17.8°C 41.1°F5.1°C 43% 8.1 mph WSW13.0 kmh WSW 11.5 mph18.5 kmh 29.80 in1009.1 mb - 0.00 in0.0 mm 0.00 in0.0 mm
11:45 AM 64.4°F18.0°C 40.8°F4.9°C 42% 10.4 mph WSW16.7 kmh WSW 15.0 mph24.1 kmh 29.80 in1009.1 mb - 0.00 in0.0 mm 0.00 in0.0 mm
11:50 AM 64.3°F17.9°C 40.7°F4.8°C 42% 9.2 mph WSW14.8 kmh WSW 9.2 mph14.8 kmh 29.80 in1009.1 mb - 0.00 in0.0 mm 0.00 in0.0 mm
11:55 AM 64.5°F18.1°C 41.5°F5.3°C 43% 6.9 mph W11.1 kmh W 11.5 mph18.5 kmh 29.80 in1009.1 mb - 0.00 in0.0 mm 0.00 in0.0 mm
12:00 PM 64.9°F18.3°C 40.6°F4.8°C 41% 6.9 mph WSW11.1 kmh WSW 11.5 mph18.5 kmh 29.80 in1009.1 mb - 0.00 in0.0 mm 0.00 in0.0 mm
12:05 PM 65.2°F18.4°C 40.9°F4.9°C 41% 8.1 mph SW13.0 kmh SW 11.5 mph18.5 kmh 29.79 in1008.8 mb - 0.00 in0.0 mm 0.00 in0.0 mm
12:10 PM 65.5°F18.6°C 41.2°F5.1°C 41% 8.1 mph WSW13.0 kmh WSW 11.5 mph18.5 kmh 29.79 in1008.8 mb - 0.00 in0.0 mm 0.00 in0.0 mm
12:15 PM 65.4°F18.6°C 41.1°F5.1°C 41% 8.1 mph WNW13.0 kmh WNW 12.7 mph20.4 kmh 29.79 in1008.8 mb - 0.00 in0.0 mm 0.00 in0.0 mm
12:20 PM 65.6°F18.7°C 41.2°F5.1°C 41% 5.8 mph WSW9.3 kmh WSW 10.4 mph16.7 kmh 29.79 in1008.8 mb - 0.00 in0.0 mm 0.00 in0.0 mm
12:25 PM 65.9°F18.8°C 40.2°F4.6°C 39% 6.9 mph WSW11.1 kmh WSW 11.5 mph18.5 kmh 29.79 in1008.8 mb - 0.00 in0.0 mm 0.00 in0.0 mm
12:30 PM 66.2°F19.0°C 39.8°F4.3°C 38% 9.2 mph W14.8 kmh W 12.7 mph20.4 kmh 29.79 in1008.8 mb - 0.00 in0.0 mm 0.00 in0.0 mm
12:35 PM 66.5°F19.2°C 40.1°F4.5°C 38% 5.8 mph WSW9.3 kmh WSW 10.4 mph16.7 kmh 29.78 in1008.5 mb - 0.00 in0.0 mm 0.00 in0.0 mm
12:40 PM 66.8°F19.3°C 38.3°F3.5°C 35% 8.1 mph W13.0 kmh W 11.5 mph18.5 kmh 29.78 in1008.5 mb - 0.00 in0.0 mm 0.00 in0.0 mm
12:45 PM 67.0°F19.4°C 39.8°F4.3°C 37% 6.9 mph WSW11.1 kmh WSW 13.8 mph22.2 kmh 29.78 in1008.5 mb - 0.00 in0.0 mm 0.00 in0.0 mm
12:50 PM 67.2°F19.6°C 39.3°F4.1°C 36% 4.6 mph NW7.4 kmh NW 11.5 mph18.5 kmh 29.79 in1008.8 mb - 0.00 in0.0 mm 0.00 in0.0 mm
12:55 PM 67.5°F19.7°C 38.9°F3.8°C 35% 6.9 mph W11.1 kmh W 9.2 mph14.8 kmh 29.78 in1008.5 mb - 0.00 in0.0 mm 0.00 in0.0 mm
01:00 PM 67.8°F19.9°C 39.1°F3.9°C 35% 8.1 mph WSW13.0 kmh WSW 11.5 mph18.5 kmh 29.78 in1008.5 mb - 0.00 in0.0 mm 0.00 in0.0 mm
01:05 PM 67.9°F19.9°C 38.5°F3.6°C 34% 6.9 mph WNW11.1 kmh WNW 11.5 mph18.5 kmh 29.78 in1008.5 mb - 0.00 in0.0 mm 0.00 in0.0 mm
01:10 PM 68.1°F20.1°C 39.4°F4.1°C 35% 6.9 mph WSW11.1 kmh WSW 11.5 mph18.5 kmh 29.78 in1008.5 mb - 0.00 in0.0 mm 0.00 in0.0 mm
01:15 PM 68.4°F20.2°C 39.6°F4.2°C 35% 8.1 mph WNW13.0 kmh WNW 13.8 mph22.2 kmh 29.78 in1008.5 mb - 0.00 in0.0 mm 0.00 in0.0 mm
01:20 PM 68.4°F20.2°C 38.9°F3.8°C 34% 10.4 mph W16.7 kmh W 13.8 mph22.2 kmh 29.78 in1008.5 mb - 0.00 in0.0 mm 0.00 in0.0 mm
01:25 PM 68.5°F20.3°C 39.0°F3.9°C 34% 6.9 mph WSW11.1 kmh WSW 11.5 mph18.5 kmh 29.77 in1008.1 mb - 0.00 in0.0 mm 0.00 in0.0 mm
01:30 PM 68.8°F20.4°C 38.5°F3.6°C 33% 8.1 mph SW13.0 kmh SW 11.5 mph18.5 kmh 29.77 in1008.1 mb - 0.00 in0.0 mm 0.00 in0.0 mm
01:35 PM 69.1°F20.6°C 38.8°F3.8°C 33% 6.9 mph WSW11.1 kmh WSW 15.0 mph24.1 kmh 29.77 in1008.1 mb - 0.00 in0.0 mm 0.00 in0.0 mm
01:40 PM 69.3°F20.7°C 38.9°F3.8°C 33% 10.4 mph WSW16.7 kmh WSW 12.7 mph20.4 kmh 29.77 in1008.1 mb - 0.00 in0.0 mm 0.00 in0.0 mm
01:45 PM 69.3°F20.7°C 38.2°F3.4°C 32% 8.1 mph WSW13.0 kmh WSW 13.8 mph22.2 kmh 29.77 in1008.1 mb - 0.00 in0.0 mm 0.00 in0.0 mm
01:50 PM 69.3°F20.7°C 38.9°F3.8°C 33% 10.4 mph WSW16.7 kmh WSW 13.8 mph22.2 kmh 29.76 in1007.8 mb - 0.00 in0.0 mm 0.00 in0.0 mm
01:55 PM 69.4°F20.8°C 39.1°F3.9°C 33% 8.1 mph W13.0 kmh W 12.7 mph20.4 kmh 29.76 in1007.8 mb - 0.00 in0.0 mm 0.00 in0.0 mm
02:00 PM 69.7°F20.9°C 39.3°F4.1°C 33% 4.6 mph W7.4 kmh W 11.5 mph18.5 kmh 29.76 in1007.8 mb - 0.00 in0.0 mm 0.00 in0.0 mm
02:05 PM 70.1°F21.2°C 37.2°F2.9°C 30% 9.2 mph W14.8 kmh W 12.7 mph20.4 kmh 29.76 in1007.8 mb - 0.00 in0.0 mm 0.00 in0.0 mm
02:10 PM 70.0°F21.1°C 38.0°F3.3°C 31% 8.1 mph W13.0 kmh W 13.8 mph22.2 kmh 29.76 in1007.8 mb - 0.00 in0.0 mm 0.00 in0.0 mm
02:15 PM 70.0°F21.1°C 38.0°F3.3°C 31% 10.4 mph WSW16.7 kmh WSW 15.0 mph24.1 kmh 29.75 in1007.5 mb - 0.00 in0.0 mm 0.00 in0.0 mm
02:20 PM 70.3°F21.3°C 39.0°F3.9°C 32% 8.1 mph W13.0 kmh W 16.1 mph25.9 kmh 29.76 in1007.8 mb - 0.00 in0.0 mm 0.00 in0.0 mm
02:25 PM 70.6°F21.4°C 38.5°F3.6°C 31% 11.5 mph WSW18.5 kmh WSW 15.0 mph24.1 kmh 29.75 in1007.5 mb - 0.00 in0.0 mm 0.00 in0.0 mm
02:30 PM 70.6°F21.4°C 38.5°F3.6°C 31% 10.4 mph W16.7 kmh W 12.7 mph20.4 kmh 29.75 in1007.5 mb - 0.00 in0.0 mm 0.00 in0.0 mm
02:35 PM 70.4°F21.3°C 38.3°F3.5°C 31% 9.2 mph WSW14.8 kmh WSW 13.8 mph22.2 kmh 29.75 in1007.5 mb - 0.00 in0.0 mm 0.00 in0.0 mm
02:40 PM 70.6°F21.4°C 38.5°F3.6°C 31% 11.5 mph W18.5 kmh W 18.4 mph29.6 kmh 29.75 in1007.5 mb - 0.00 in0.0 mm 0.00 in0.0 mm
02:45 PM 70.6°F21.4°C 38.5°F3.6°C 31% 9.2 mph W14.8 kmh W 11.5 mph18.5 kmh 29.75 in1007.5 mb - 0.00 in0.0 mm 0.00 in0.0 mm
02:50 PM 70.9°F21.6°C 38.7°F3.7°C 31% 9.2 mph W14.8 kmh W 16.1 mph25.9 kmh 29.75 in1007.5 mb - 0.00 in0.0 mm 0.00 in0.0 mm
02:55 PM 71.0°F21.7°C 38.8°F3.8°C 31% 8.1 mph W13.0 kmh W 11.5 mph18.5 kmh 29.75 in1007.5 mb - 0.00 in0.0 mm 0.00 in0.0 mm
03:00 PM 71.1°F21.7°C 38.9°F3.8°C 31% 10.4 mph WSW16.7 kmh WSW 18.4 mph29.6 kmh 29.75 in1007.5 mb - 0.00 in0.0 mm 0.00 in0.0 mm
03:05 PM 71.2°F21.8°C 39.0°F3.9°C 31% 8.1 mph WSW13.0 kmh WSW 11.5 mph18.5 kmh 29.75 in1007.5 mb - 0.00 in0.0 mm 0.00 in0.0 mm
03:10 PM 71.6°F22.0°C 39.4°F4.1°C 31% 10.4 mph WSW16.7 kmh WSW 16.1 mph25.9 kmh 29.75 in1007.5 mb - 0.00 in0.0 mm 0.00 in0.0 mm
03:15 PM 71.9°F22.2°C 38.8°F3.8°C 30% 10.4 mph WSW16.7 kmh WSW 12.7 mph20.4 kmh 29.75 in1007.5 mb - 0.00 in0.0 mm 0.00 in0.0 mm
03:20 PM 72.0°F22.2°C 39.7°F4.3°C 31% 9.2 mph WSW14.8 kmh WSW 11.5 mph18.5 kmh 29.75 in1007.5 mb - 0.00 in0.0 mm 0.00 in0.0 mm
03:25 PM 72.1°F22.3°C 39.8°F4.3°C 31% 10.4 mph W16.7 kmh W 13.8 mph22.2 kmh 29.75 in1007.5 mb - 0.00 in0.0 mm 0.00 in0.0 mm
03:30 PM 72.0°F22.2°C 39.7°F4.3°C 31% 10.4 mph WSW16.7 kmh WSW 13.8 mph22.2 kmh 29.75 in1007.5 mb - 0.00 in0.0 mm 0.00 in0.0 mm
03:35 PM 72.2°F22.3°C 39.9°F4.4°C 31% 10.4 mph WSW16.7 kmh WSW 11.5 mph18.5 kmh 29.74 in1007.1 mb - 0.00 in0.0 mm 0.00 in0.0 mm
03:40 PM 72.5°F22.5°C 40.9°F4.9°C 32% 9.2 mph WSW14.8 kmh WSW 12.7 mph20.4 kmh 29.74 in1007.1 mb - 0.00 in0.0 mm 0.00 in0.0 mm
03:45 PM 72.8°F22.7°C 40.4°F4.7°C 31% 5.8 mph WSW9.3 kmh WSW 8.1 mph13.0 kmh 29.75 in1007.5 mb - 0.00 in0.0 mm 0.00 in0.0 mm
03:50 PM 72.9°F22.7°C 40.5°F4.7°C 31% 8.1 mph W13.0 kmh W 13.8 mph22.2 kmh 29.75 in1007.5 mb - 0.00 in0.0 mm 0.00 in0.0 mm
03:55 PM 72.8°F22.7°C 41.2°F5.1°C 32% 4.6 mph WSW7.4 kmh WSW 9.2 mph14.8 kmh 29.75 in1007.5 mb - 0.00 in0.0 mm 0.00 in0.0 mm
04:00 PM 73.0°F22.8°C 41.4°F5.2°C 32% 9.2 mph W14.8 kmh W 18.4 mph29.6 kmh 29.75 in1007.5 mb - 0.00 in0.0 mm 0.00 in0.0 mm
04:05 PM 72.9°F22.7°C 41.3°F5.2°C 32% 5.8 mph SW9.3 kmh SW 8.1 mph13.0 kmh 29.75 in1007.5 mb - 0.00 in0.0 mm 0.00 in0.0 mm
04:10 PM 73.1°F22.8°C 40.7°F4.8°C 31% 9.2 mph WSW14.8 kmh WSW 16.1 mph25.9 kmh 29.75 in1007.5 mb - 0.00 in0.0 mm 0.00 in0.0 mm
04:15 PM 72.9°F22.7°C 40.5°F4.7°C 31% 9.2 mph WSW14.8 kmh WSW 13.8 mph22.2 kmh 29.75 in1007.5 mb - 0.00 in0.0 mm 0.00 in0.0 mm
04:20 PM 72.7°F22.6°C 40.3°F4.6°C 31% 11.5 mph WSW18.5 kmh WSW 17.3 mph27.8 kmh 29.74 in1007.1 mb - 0.00 in0.0 mm 0.00 in0.0 mm
04:25 PM 72.6°F22.6°C 40.2°F4.6°C 31% 9.2 mph WSW14.8 kmh WSW 15.0 mph24.1 kmh 29.75 in1007.5 mb - 0.00 in0.0 mm 0.00 in0.0 mm
04:30 PM 72.4°F22.4°C 40.0°F4.4°C 31% 11.5 mph WSW18.5 kmh WSW 11.5 mph18.5 kmh 29.75 in1007.5 mb - 0.00 in0.0 mm 0.00 in0.0 mm
04:35 PM 72.3°F22.4°C 40.0°F4.4°C 31% 9.2 mph SW14.8 kmh SW 15.0 mph24.1 kmh 29.75 in1007.5 mb - 0.00 in0.0 mm 0.00 in0.0 mm
04:40 PM 72.2°F22.3°C 39.9°F4.4°C 31% 10.4 mph W16.7 kmh W 16.1 mph25.9 kmh 29.76 in1007.8 mb - 0.00 in0.0 mm 0.00 in0.0 mm
04:45 PM 71.9°F22.2°C 40.4°F4.7°C 32% 9.2 mph W14.8 kmh W 16.1 mph25.9 kmh 29.75 in1007.5 mb - 0.00 in0.0 mm 0.00 in0.0 mm
04:50 PM 71.7°F22.1°C 40.2°F4.6°C 32% 10.4 mph W16.7 kmh W 11.5 mph18.5 kmh 29.76 in1007.8 mb - 0.00 in0.0 mm 0.00 in0.0 mm
04:55 PM 71.5°F21.9°C 40.1°F4.5°C 32% 6.9 mph W11.1 kmh W 6.9 mph11.1 kmh 29.76 in1007.8 mb - 0.00 in0.0 mm 0.00 in0.0 mm
05:00 PM 71.5°F21.9°C 40.1°F4.5°C 32% 9.2 mph WSW14.8 kmh WSW 12.7 mph20.4 kmh 29.76 in1007.8 mb - 0.00 in0.0 mm 0.00 in0.0 mm
05:05 PM 71.4°F21.9°C 40.8°F4.9°C 33% 5.8 mph W9.3 kmh W 11.5 mph18.5 kmh 29.76 in1007.8 mb - 0.00 in0.0 mm 0.00 in0.0 mm
05:10 PM 71.1°F21.7°C 39.7°F4.3°C 32% 10.4 mph WSW16.7 kmh WSW 11.5 mph18.5 kmh 29.76 in1007.8 mb - 0.00 in0.0 mm 0.00 in0.0 mm
05:15 PM 70.7°F21.5°C 39.3°F4.1°C 32% 8.1 mph WSW13.0 kmh WSW 12.7 mph20.4 kmh 29.76 in1007.8 mb - 0.00 in0.0 mm 0.00 in0.0 mm
05:20 PM 70.1°F21.2°C 38.9°F3.8°C 32% 9.2 mph WSW14.8 kmh WSW 13.8 mph22.2 kmh 29.76 in1007.8 mb - 0.00 in0.0 mm 0.00 in0.0 mm
05:25 PM 69.8°F21.0°C 37.8°F3.2°C 31% 9.2 mph W14.8 kmh W 15.0 mph24.1 kmh 29.77 in1008.1 mb - 0.00 in0.0 mm 0.00 in0.0 mm
05:30 PM 69.5°F20.8°C 38.3°F3.5°C 32% 10.4 mph WSW16.7 kmh WSW 12.7 mph20.4 kmh 29.77 in1008.1 mb - 0.00 in0.0 mm 0.00 in0.0 mm
05:35 PM 69.2°F20.7°C 38.1°F3.4°C 32% 6.9 mph W11.1 kmh W 9.2 mph14.8 kmh 29.77 in1008.1 mb - 0.00 in0.0 mm 0.00 in0.0 mm
05:40 PM 68.9°F20.5°C 37.8°F3.2°C 32% 8.1 mph W13.0 kmh W 11.5 mph18.5 kmh 29.76 in1007.8 mb - 0.00 in0.0 mm 0.00 in0.0 mm
05:45 PM 68.6°F20.3°C 37.6°F3.1°C 32% 6.9 mph W11.1 kmh W 13.8 mph22.2 kmh 29.77 in1008.1 mb - 0.00 in0.0 mm 0.00 in0.0 mm
05:50 PM 68.4°F20.2°C 37.4°F3.0°C 32% 6.9 mph WNW11.1 kmh WNW 10.4 mph16.7 kmh 29.77 in1008.1 mb - 0.00 in0.0 mm 0.00 in0.0 mm
05:55 PM 68.1°F20.1°C 37.1°F2.8°C 32% 9.2 mph WNW14.8 kmh WNW 16.1 mph25.9 kmh 29.77 in1008.1 mb - 0.00 in0.0 mm 0.00 in0.0 mm
06:00 PM 67.8°F19.9°C 37.6°F3.1°C 33% 9.2 mph WNW14.8 kmh WNW 11.5 mph18.5 kmh 29.77 in1008.1 mb - 0.00 in0.0 mm 0.00 in0.0 mm
06:05 PM 67.4°F19.7°C 38.1°F3.4°C 34% 6.9 mph W11.1 kmh W 10.4 mph16.7 kmh 29.77 in1008.1 mb - 0.00 in0.0 mm 0.00 in0.0 mm
06:10 PM 67.1°F19.5°C 37.8°F3.2°C 34% 10.4 mph W16.7 kmh W 12.7 mph20.4 kmh 29.78 in1008.5 mb - 0.00 in0.0 mm 0.00 in0.0 mm
06:15 PM 66.8°F19.3°C 38.3°F3.5°C 35% 9.2 mph W14.8 kmh W 11.5 mph18.5 kmh 29.78 in1008.5 mb - 0.00 in0.0 mm 0.00 in0.0 mm
06:20 PM 66.5°F19.2°C 38.0°F3.3°C 35% 9.2 mph W14.8 kmh W 13.8 mph22.2 kmh 29.77 in1008.1 mb - 0.00 in0.0 mm 0.00 in0.0 mm
06:25 PM 66.1°F18.9°C 38.4°F3.6°C 36% 9.2 mph WSW14.8 kmh WSW 12.7 mph20.4 kmh 29.77 in1008.1 mb - 0.00 in0.0 mm 0.00 in0.0 mm
06:30 PM 65.8°F18.8°C 38.1°F3.4°C 36% 8.1 mph WSW13.0 kmh WSW 9.2 mph14.8 kmh 29.78 in1008.5 mb - 0.00 in0.0 mm 0.00 in0.0 mm
06:35 PM 65.5°F18.6°C 38.5°F3.6°C 37% 5.8 mph W9.3 kmh W 8.1 mph13.0 kmh 29.78 in1008.5 mb - 0.00 in0.0 mm 0.00 in0.0 mm
06:40 PM 65.3°F18.5°C 38.3°F3.5°C 37% 5.8 mph W9.3 kmh W 13.8 mph22.2 kmh 29.78 in1008.5 mb - 0.00 in0.0 mm 0.00 in0.0 mm
06:45 PM 65.2°F18.4°C 38.2°F3.4°C 37% 4.6 mph W7.4 kmh W 10.4 mph16.7 kmh 29.78 in1008.5 mb - 0.00 in0.0 mm 0.00 in0.0 mm
06:50 PM 65.1°F18.4°C 38.2°F3.4°C 37% 6.9 mph WNW11.1 kmh WNW 12.7 mph20.4 kmh 29.78 in1008.5 mb - 0.00 in0.0 mm 0.00 in0.0 mm
06:55 PM 65.0°F18.3°C 38.8°F3.8°C 38% 5.8 mph W9.3 kmh W 9.2 mph14.8 kmh 29.78 in1008.5 mb - 0.00 in0.0 mm 0.00 in0.0 mm
07:00 PM 64.8°F18.2°C 38.6°F3.7°C 38% 5.8 mph W9.3 kmh W 9.2 mph14.8 kmh 29.79 in1008.8 mb - 0.00 in0.0 mm 0.00 in0.0 mm
07:05 PM 64.6°F18.1°C 38.4°F3.6°C 38% 6.9 mph WNW11.1 kmh WNW 9.2 mph14.8 kmh 29.79 in1008.8 mb - 0.00 in0.0 mm 0.00 in0.0 mm
07:10 PM 64.4°F18.0°C 38.2°F3.4°C 38% 5.8 mph WNW9.3 kmh WNW 10.4 mph16.7 kmh 29.79 in1008.8 mb - 0.00 in0.0 mm 0.00 in0.0 mm
07:15 PM 64.3°F17.9°C 38.1°F3.4°C 38% 5.8 mph W9.3 kmh W 9.2 mph14.8 kmh 29.79 in1008.8 mb - 0.00 in0.0 mm 0.00 in0.0 mm
07:20 PM 64.2°F17.9°C 38.0°F3.3°C 38% 6.9 mph W11.1 kmh W 11.5 mph18.5 kmh 29.79 in1008.8 mb - 0.00 in0.0 mm 0.00 in0.0 mm
07:25 PM 64.0°F17.8°C 37.9°F3.3°C 38% 5.8 mph W9.3 kmh W 9.2 mph14.8 kmh 29.79 in1008.8 mb - 0.00 in0.0 mm 0.00 in0.0 mm
07:30 PM 63.9°F17.7°C 37.8°F3.2°C 38% 6.9 mph WNW11.1 kmh WNW 11.5 mph18.5 kmh 29.80 in1009.1 mb - 0.00 in0.0 mm 0.00 in0.0 mm
07:35 PM 63.8°F17.7°C 38.4°F3.6°C 39% 6.9 mph W11.1 kmh W 9.2 mph14.8 kmh 29.80 in1009.1 mb - 0.00 in0.0 mm 0.00 in0.0 mm
07:40 PM 63.6°F17.6°C 38.2°F3.4°C 39% 4.6 mph NW7.4 kmh NW 5.8 mph9.3 kmh 29.80 in1009.1 mb - 0.00 in0.0 mm 0.00 in0.0 mm
07:45 PM 63.5°F17.5°C 38.1°F3.4°C 39% 6.9 mph WNW11.1 kmh WNW 9.2 mph14.8 kmh 29.80 in1009.1 mb - 0.00 in0.0 mm 0.00 in0.0 mm
07:50 PM 63.4°F17.4°C 38.0°F3.3°C 39% 6.9 mph NW11.1 kmh NW 11.5 mph18.5 kmh 29.80 in1009.1 mb - 0.00 in0.0 mm 0.00 in0.0 mm
07:55 PM 63.2°F17.3°C 37.8°F3.2°C 39% 6.9 mph WNW11.1 kmh WNW 11.5 mph18.5 kmh 29.81 in1009.5 mb - 0.00 in0.0 mm 0.00 in0.0 mm
08:00 PM 62.9°F17.2°C 38.2°F3.4°C 40% 9.2 mph NW14.8 kmh NW 12.7 mph20.4 kmh 29.81 in1009.5 mb - 0.00 in0.0 mm 0.00 in0.0 mm
08:05 PM 62.5°F16.9°C 38.5°F3.6°C 41% 9.2 mph NW14.8 kmh NW 10.4 mph16.7 kmh 29.81 in1009.5 mb - 0.00 in0.0 mm 0.00 in0.0 mm
08:10 PM 62.2°F16.8°C 38.8°F3.8°C 42% 5.8 mph NW9.3 kmh NW 9.2 mph14.8 kmh 29.81 in1009.5 mb - 0.00 in0.0 mm 0.00 in0.0 mm
08:15 PM 62.0°F16.7°C 39.2°F4.0°C 43% 6.9 mph NW11.1 kmh NW 11.5 mph18.5 kmh 29.81 in1009.5 mb - 0.00 in0.0 mm 0.00 in0.0 mm
08:20 PM 61.7°F16.5°C 39.0°F3.9°C 43% 6.9 mph NW11.1 kmh NW 9.2 mph14.8 kmh 29.81 in1009.5 mb - 0.00 in0.0 mm 0.00 in0.0 mm
08:25 PM 61.5°F16.4°C 39.4°F4.1°C 44% 5.8 mph NW9.3 kmh NW 9.2 mph14.8 kmh 29.82 in1009.8 mb - 0.00 in0.0 mm 0.00 in0.0 mm
08:30 PM 61.3°F16.3°C 39.2°F4.0°C 44% 8.1 mph NW13.0 kmh NW 11.5 mph18.5 kmh 29.82 in1009.8 mb - 0.00 in0.0 mm 0.00 in0.0 mm
08:35 PM 61.3°F16.3°C 39.1°F3.9°C 44% 6.9 mph NW11.1 kmh NW 10.4 mph16.7 kmh 29.82 in1009.8 mb - 0.00 in0.0 mm 0.00 in0.0 mm
08:40 PM 61.2°F16.2°C 39.1°F3.9°C 44% 8.1 mph NW13.0 kmh NW 11.5 mph18.5 kmh 29.82 in1009.8 mb - 0.00 in0.0 mm 0.00 in0.0 mm
08:45 PM 61.2°F16.2°C 39.7°F4.3°C 45% 8.1 mph NW13.0 kmh NW 10.4 mph16.7 kmh 29.82 in1009.8 mb - 0.00 in0.0 mm 0.00 in0.0 mm
08:50 PM 61.1°F16.2°C 39.6°F4.2°C 45% 8.1 mph NW13.0 kmh NW 11.5 mph18.5 kmh 29.82 in1009.8 mb - 0.00 in0.0 mm 0.00 in0.0 mm
08:55 PM 60.9°F16.1°C 40.0°F4.4°C 46% 8.1 mph NW13.0 kmh NW 10.4 mph16.7 kmh 29.82 in1009.8 mb - 0.00 in0.0 mm 0.00 in0.0 mm
09:00 PM 60.8°F16.0°C 39.9°F4.4°C 46% 8.1 mph NW13.0 kmh NW 9.2 mph14.8 kmh 29.82 in1009.8 mb - 0.00 in0.0 mm 0.00 in0.0 mm
09:05 PM 60.6°F15.9°C 39.7°F4.3°C 46% 6.9 mph NW11.1 kmh NW 9.2 mph14.8 kmh 29.82 in1009.8 mb - 0.00 in0.0 mm 0.00 in0.0 mm
09:10 PM 60.5°F15.8°C 40.2°F4.6°C 47% 8.1 mph WNW13.0 kmh WNW 11.5 mph18.5 kmh 29.82 in1009.8 mb - 0.00 in0.0 mm 0.00 in0.0 mm
09:15 PM 60.4°F15.8°C 40.1°F4.5°C 47% 8.1 mph NW13.0 kmh NW 11.5 mph18.5 kmh 29.82 in1009.8 mb - 0.00 in0.0 mm 0.00 in0.0 mm
09:20 PM 60.3°F15.7°C 40.5°F4.7°C 48% 6.9 mph NW11.1 kmh NW 10.4 mph16.7 kmh 29.82 in1009.8 mb - 0.00 in0.0 mm 0.00 in0.0 mm
09:25 PM 60.2°F15.7°C 40.4°F4.7°C 48% 8.1 mph NW13.0 kmh NW 10.4 mph16.7 kmh 29.83 in1010.2 mb - 0.00 in0.0 mm 0.00 in0.0 mm
09:30 PM 60.1°F15.6°C 40.3°F4.6°C 48% 8.1 mph NW13.0 kmh NW 11.5 mph18.5 kmh 29.83 in1010.2 mb - 0.00 in0.0 mm 0.00 in0.0 mm
09:35 PM 60.1°F15.6°C 40.9°F4.9°C 49% 6.9 mph NW11.1 kmh NW 12.7 mph20.4 kmh 29.83 in1010.2 mb - 0.00 in0.0 mm 0.00 in0.0 mm
09:40 PM 60.1°F15.6°C 40.9°F4.9°C 49% 6.9 mph NW11.1 kmh NW 5.8 mph9.3 kmh 29.83 in1010.2 mb - 0.00 in0.0 mm 0.00 in0.0 mm
09:45 PM 60.1°F15.6°C 40.9°F4.9°C 49% 6.9 mph NW11.1 kmh NW 10.4 mph16.7 kmh 29.83 in1010.2 mb - 0.00 in0.0 mm 0.00 in0.0 mm
09:50 PM 60.1°F15.6°C 40.9°F4.9°C 49% 5.8 mph WNW9.3 kmh WNW 9.2 mph14.8 kmh 29.83 in1010.2 mb - 0.00 in0.0 mm 0.00 in0.0 mm
09:55 PM 60.0°F15.6°C 40.8°F4.9°C 49% 8.1 mph NW13.0 kmh NW 10.4 mph16.7 kmh 29.83 in1010.2 mb - 0.00 in0.0 mm 0.00 in0.0 mm
10:00 PM 60.1°F15.6°C 40.9°F4.9°C 49% 8.1 mph NW13.0 kmh NW 10.4 mph16.7 kmh 29.84 in1010.5 mb - 0.00 in0.0 mm 0.00 in0.0 mm
10:05 PM 60.2°F15.7°C 41.0°F5.0°C 49% 4.6 mph NW7.4 kmh NW 9.2 mph14.8 kmh 29.84 in1010.5 mb - 0.00 in0.0 mm 0.00 in0.0 mm
10:10 PM 60.1°F15.6°C 40.9°F4.9°C 49% 5.8 mph WNW9.3 kmh WNW 9.2 mph14.8 kmh 29.84 in1010.5 mb - 0.00 in0.0 mm 0.00 in0.0 mm
10:15 PM 60.1°F15.6°C 40.9°F4.9°C 49% 5.8 mph WNW9.3 kmh WNW 10.4 mph16.7 kmh 29.84 in1010.5 mb - 0.00 in0.0 mm 0.00 in0.0 mm
10:20 PM 60.1°F15.6°C 40.9°F4.9°C 49% 5.8 mph WNW9.3 kmh WNW 5.8 mph9.3 kmh 29.84 in1010.5 mb - 0.00 in0.0 mm 0.00 in0.0 mm
10:25 PM 60.0°F15.6°C 41.3°F5.2°C 50% 5.8 mph NW9.3 kmh NW 9.2 mph14.8 kmh 29.84 in1010.5 mb - 0.00 in0.0 mm 0.00 in0.0 mm
10:30 PM 59.9°F15.5°C 41.2°F5.1°C 50% 6.9 mph NW11.1 kmh NW 11.5 mph18.5 kmh 29.84 in1010.5 mb - 0.00 in0.0 mm 0.00 in0.0 mm
10:35 PM 59.8°F15.4°C 41.6°F5.3°C 51% 6.9 mph NW11.1 kmh NW 8.1 mph13.0 kmh 29.84 in1010.5 mb - 0.00 in0.0 mm 0.00 in0.0 mm
10:40 PM 59.7°F15.4°C 41.6°F5.3°C 51% 6.9 mph WNW11.1 kmh WNW 11.5 mph18.5 kmh 29.84 in1010.5 mb - 0.00 in0.0 mm 0.00 in0.0 mm
10:45 PM 59.6°F15.3°C 41.9°F5.5°C 52% 5.8 mph WNW9.3 kmh WNW 11.5 mph18.5 kmh 29.84 in1010.5 mb - 0.00 in0.0 mm 0.00 in0.0 mm
10:50 PM 59.5°F15.3°C 41.8°F5.4°C 52% 5.8 mph W9.3 kmh W 8.1 mph13.0 kmh 29.84 in1010.5 mb - 0.00 in0.0 mm 0.00 in0.0 mm
10:55 PM 59.2°F15.1°C 42.1°F5.6°C 53% 5.8 mph W9.3 kmh W 9.2 mph14.8 kmh 29.84 in1010.5 mb - 0.00 in0.0 mm 0.00 in0.0 mm
11:00 PM 59.1°F15.1°C 42.0°F5.6°C 53% 8.1 mph W13.0 kmh W 11.5 mph18.5 kmh 29.84 in1010.5 mb - 0.00 in0.0 mm 0.00 in0.0 mm
11:05 PM 58.9°F14.9°C 42.3°F5.7°C 54% 6.9 mph WSW11.1 kmh WSW 6.9 mph11.1 kmh 29.85 in1010.8 mb - 0.00 in0.0 mm 0.00 in0.0 mm
11:10 PM 58.7°F14.8°C 42.5°F5.8°C 55% 6.9 mph W11.1 kmh W 11.5 mph18.5 kmh 29.85 in1010.8 mb - 0.00 in0.0 mm 0.00 in0.0 mm
11:15 PM 58.3°F14.6°C 42.7°F5.9°C 56% 5.8 mph WSW9.3 kmh WSW 8.1 mph13.0 kmh 29.84 in1010.5 mb - 0.00 in0.0 mm 0.00 in0.0 mm
11:20 PM 58.0°F14.4°C 42.4°F5.8°C 56% 5.8 mph W9.3 kmh W 9.2 mph14.8 kmh 29.85 in1010.8 mb - 0.00 in0.0 mm 0.00 in0.0 mm
11:25 PM 57.7°F14.3°C 42.6°F5.9°C 57% 5.8 mph WSW9.3 kmh WSW 8.1 mph13.0 kmh 29.85 in1010.8 mb - 0.00 in0.0 mm 0.00 in0.0 mm
11:30 PM 57.5°F14.2°C 42.8°F6.0°C 58% 6.9 mph W11.1 kmh W 9.2 mph14.8 kmh 29.85 in1010.8 mb - 0.00 in0.0 mm 0.00 in0.0 mm
11:35 PM 57.3°F14.1°C 42.6°F5.9°C 58% 5.8 mph W9.3 kmh W 10.4 mph16.7 kmh 29.85 in1010.8 mb - 0.00 in0.0 mm 0.00 in0.0 mm
11:40 PM 57.2°F14.0°C 42.5°F5.8°C 58% 5.8 mph W9.3 kmh W 9.2 mph14.8 kmh 29.85 in1010.8 mb - 0.00 in0.0 mm 0.00 in0.0 mm
11:45 PM 57.1°F13.9°C 42.9°F6.1°C 59% 5.8 mph W9.3 kmh W 8.1 mph13.0 kmh 29.85 in1010.8 mb - 0.00 in0.0 mm 0.00 in0.0 mm
11:50 PM 57.0°F13.9°C 42.8°F6.0°C 59% 5.8 mph WSW9.3 kmh WSW 8.1 mph13.0 kmh 29.85 in1010.8 mb - 0.00 in0.0 mm 0.00 in0.0 mm
11:55 PM 56.8°F13.8°C 43.1°F6.2°C 60% 8.1 mph W13.0 kmh W 11.5 mph18.5 kmh 29.85 in1010.8 mb - 0.00 in0.0 mm 0.00 in0.0 mm